Time;durP1;ratioP1;P1;durP2;ratioP2;P2;SDS_P1;SDS_P2;PMS_P1;PMS_P2;Temp;Humidity;BMP_temperature;BMP_pressure;BME280_temperature;BME280_humidity;BME280_pressure;Samples;Min_cycle;Max_cycle;Signal;HPM_P1;HPM_P2
2023/07/22 00:01:45;;;;;;;5.70;1.60;;;;;;;;;;5013478;28;20828;-58
2023/07/22 00:04:12;;;;;;;3.00;2.10;;;;;;;;;;5013087;28;20470;-56
2023/07/22 00:06:39;;;;;;;2.43;1.70;;;;;;;;;;5026722;28;21009;-56
2023/07/22 00:09:07;;;;;;;2.47;1.40;;;;;;;;;;5031808;28;20478;-58
2023/07/22 00:11:34;;;;;;;2.60;1.80;;;;;;;;;;5027088;28;20474;-58
2023/07/22 00:14:01;;;;;;;4.83;1.50;;;;;;;;;;5031447;28;20447;-57
2023/07/22 00:16:29;;;;;;;2.67;1.60;;;;;;;;;;5018041;28;20455;-58
2023/07/22 00:18:58;;;;;;;3.60;2.20;;;;;;;;;;5014114;28;20459;-59
2023/07/22 00:21:25;;;;;;;3.23;2.17;;;;;;;;;;5022463;28;20534;-57
2023/07/22 00:23:52;;;;;;;3.20;1.87;;;;;;;;;;5012789;28;20442;-57
2023/07/22 00:26:20;;;;;;;3.70;2.13;;;;;;;;;;5013291;28;20526;-56
2023/07/22 00:28:47;;;;;;;2.17;1.50;;;;;;;;;;5013024;28;21233;-57
2023/07/22 00:31:14;;;;;;;2.70;1.70;;;;;;;;;;5029902;28;20529;-57
2023/07/22 00:33:41;;;;;;;2.30;1.60;;;;;;;;;;5012523;28;20443;-57
2023/07/22 00:36:10;;;;;;;2.20;1.43;;;;;;;;;;5012369;28;21034;-57
2023/07/22 00:38:37;;;;;;;2.80;1.27;;;;;;;;;;5027007;28;20539;-58
2023/07/22 00:41:05;;;;;;;3.37;1.50;;;;;;;;;;5031469;28;20482;-57
2023/07/22 00:43:32;;;;;;;4.37;1.93;;;;;;;;;;5017150;28;20454;-58
2023/07/22 00:46:00;;;;;;;2.90;1.60;;;;;;;;;;5012803;28;20501;-57
2023/07/22 00:48:27;;;;;;;5.60;1.50;;;;;;;;;;5013140;28;20475;-57
2023/07/22 00:50:54;;;;;;;2.17;1.20;;;;;;;;;;5022875;28;20530;-56
2023/07/22 00:53:23;;;;;;;2.10;1.27;;;;;;;;;;5011223;28;20505;-55
2023/07/22 00:55:50;;;;;;;3.00;1.37;;;;;;;;;;5012017;28;20494;-57
2023/07/22 00:58:17;;;;;;;3.23;1.30;;;;;;;;;;5010574;28;20491;-57
2023/07/22 01:00:45;;;;;;;3.00;1.57;;;;;;;;;;5010680;28;20526;-56
2023/07/22 01:03:12;;;;;;;3.17;1.93;;;;;;;;;;5010483;28;20549;-55
2023/07/22 01:05:41;;;;;;;2.10;1.37;;;;;;;;;;5011810;28;20443;-55
2023/07/22 01:08:09;;;;;;;2.73;1.80;;;;;;;;;;5011012;28;20487;-56
2023/07/22 01:10:38;;;;;;;2.87;1.50;;;;;;;;;;5020321;28;20450;-56
2023/07/22 01:13:05;;;;;;;4.57;1.83;;;;;;;;;;5019797;28;20513;-57
2023/07/22 01:15:32;;;;;;;2.50;1.80;;;;;;;;;;5012763;28;20439;-56
2023/07/22 01:18:01;;;;;;;3.80;1.40;;;;;;;;;;5011111;28;20554;-56
2023/07/22 01:20:29;;;;;;;2.60;1.57;;;;;;;;;;5019431;28;20527;-55
2023/07/22 01:22:58;;;;;;;2.83;1.60;;;;;;;;;;5027092;28;20525;-57
2023/07/22 01:25:25;;;;;;;7.13;3.40;;;;;;;;;;5026642;28;20490;-56
2023/07/22 01:27:52;;;;;;;2.70;1.50;;;;;;;;;;5010613;28;20475;-56
2023/07/22 01:30:20;;;;;;;5.23;1.80;;;;;;;;;;5029846;28;20931;-56
2023/07/22 01:32:48;;;;;;;5.53;1.63;;;;;;;;;;5025654;28;20970;-56
2023/07/22 01:35:15;;;;;;;3.17;1.80;;;;;;;;;;5011221;28;20451;-57
2023/07/22 01:37:43;;;;;;;2.63;1.53;;;;;;;;;;5011162;28;20526;-57
2023/07/22 01:40:12;;;;;;;3.13;1.47;;;;;;;;;;5025522;28;20442;-58
2023/07/22 01:42:40;;;;;;;6.07;2.07;;;;;;;;;;5026955;28;20485;-58
2023/07/22 01:45:08;;;;;;;2.40;1.60;;;;;;;;;;5012315;28;20531;-56
2023/07/22 01:47:35;;;;;;;2.93;1.93;;;;;;;;;;5011023;28;20961;-56
2023/07/22 01:50:03;;;;;;;3.70;2.23;;;;;;;;;;5010763;28;21192;-55
2023/07/22 01:52:30;;;;;;;2.80;1.77;;;;;;;;;;5022975;28;20894;-56
2023/07/22 01:54:57;;;;;;;3.27;1.87;;;;;;;;;;5030614;28;20858;-56
2023/07/22 01:57:26;;;;;;;2.83;1.83;;;;;;;;;;5030632;28;20478;-55
2023/07/22 01:59:53;;;;;;;4.63;2.00;;;;;;;;;;5030379;28;20557;-58
2023/07/22 02:02:20;;;;;;;5.67;2.37;;;;;;;;;;5028419;28;20536;-55
2023/07/22 02:04:48;;;;;;;2.73;1.93;;;;;;;;;;5029777;28;20446;-56
2023/07/22 02:07:15;;;;;;;2.93;1.90;;;;;;;;;;5030685;28;20474;-57
2023/07/22 02:09:42;;;;;;;4.03;2.10;;;;;;;;;;5030048;28;20602;-55
2023/07/22 02:12:10;;;;;;;2.20;1.67;;;;;;;;;;5015726;28;20475;-57
2023/07/22 02:14:38;;;;;;;5.43;1.80;;;;;;;;;;5011634;28;20449;-57
2023/07/22 02:17:09;;;;;;;4.20;2.07;;;;;;;;;;5010869;28;20565;-57
2023/07/22 02:19:36;;;;;;;4.20;2.07;;;;;;;;;;5010816;28;20774;-58
2023/07/22 02:22:04;;;;;;;2.93;1.70;;;;;;;;;;5026826;28;20500;-56
2023/07/22 02:24:31;;;;;;;3.47;2.10;;;;;;;;;;5019145;28;20438;-56
2023/07/22 02:26:58;;;;;;;2.90;1.80;;;;;;;;;;5028529;28;20537;-57
2023/07/22 02:29:26;;;;;;;4.63;2.13;;;;;;;;;;5028952;28;20489;-57
2023/07/22 02:31:54;;;;;;;3.20;2.03;;;;;;;;;;5028601;28;20894;-56
2023/07/22 02:34:22;;;;;;;4.87;2.33;;;;;;;;;;5028065;28;20926;-57
2023/07/22 02:36:48;;;;;;;3.90;1.90;;;;;;;;;;5026343;28;20449;-58
2023/07/22 02:39:15;;;;;;;4.20;2.20;;;;;;;;;;5010104;28;20553;-56
2023/07/22 02:41:43;;;;;;;4.00;2.13;;;;;;;;;;5010432;28;20542;-56
2023/07/22 02:44:10;;;;;;;4.07;1.70;;;;;;;;;;5010446;28;20526;-55
2023/07/22 02:46:37;;;;;;;4.30;2.70;;;;;;;;;;5010243;28;20439;-56
2023/07/22 02:49:06;;;;;;;2.57;2.00;;;;;;;;;;5010147;28;20573;-57
2023/07/22 02:51:33;;;;;;;3.30;2.00;;;;;;;;;;5010393;28;20558;-56
2023/07/22 02:54:00;;;;;;;3.63;2.43;;;;;;;;;;5011278;28;20970;-55
2023/07/22 02:56:28;;;;;;;3.40;2.50;;;;;;;;;;5010318;28;20461;-56
2023/07/22 02:58:55;;;;;;;3.13;2.07;;;;;;;;;;5009598;28;20886;-56
2023/07/22 03:01:23;;;;;;;3.03;1.93;;;;;;;;;;5010783;28;20457;-58
2023/07/22 03:03:50;;;;;;;2.90;1.83;;;;;;;;;;5010270;28;20450;-57
2023/07/22 03:06:19;;;;;;;5.10;2.60;;;;;;;;;;5010465;28;21022;-54
2023/07/22 03:08:48;;;;;;;4.50;2.30;;;;;;;;;;5009094;28;20478;-55
2023/07/22 03:11:15;;;;;;;3.40;2.27;;;;;;;;;;5018077;28;20923;-54
2023/07/22 03:13:42;;;;;;;3.43;1.63;;;;;;;;;;5029545;28;20451;-57
2023/07/22 03:16:10;;;;;;;3.87;2.40;;;;;;;;;;5029373;28;20537;-56
2023/07/22 03:18:39;;;;;;;4.97;2.63;;;;;;;;;;5032466;28;20865;-56
2023/07/22 03:21:06;;;;;;;5.67;2.77;;;;;;;;;;5027930;28;21149;-57
2023/07/22 03:23:35;;;;;;;3.70;2.57;;;;;;;;;;5014281;28;20447;-57
2023/07/22 03:26:03;;;;;;;3.53;2.30;;;;;;;;;;5013712;28;20535;-57
2023/07/22 03:28:30;;;;;;;3.83;2.10;;;;;;;;;;5013280;28;20542;-57
2023/07/22 03:30:57;;;;;;;3.07;2.20;;;;;;;;;;5013215;28;20478;-58
2023/07/22 03:33:24;;;;;;;3.13;2.17;;;;;;;;;;5013667;28;20528;-56
2023/07/22 03:35:52;;;;;;;4.00;2.80;;;;;;;;;;5019652;28;20525;-58
2023/07/22 03:38:19;;;;;;;4.20;2.53;;;;;;;;;;5026375;28;20474;-56
2023/07/22 03:40:47;;;;;;;3.80;2.50;;;;;;;;;;5013455;28;20467;-55
2023/07/22 03:43:15;;;;;;;3.10;2.40;;;;;;;;;;5027024;28;20537;-55
2023/07/22 03:45:42;;;;;;;3.87;2.37;;;;;;;;;;5027816;28;20525;-57
2023/07/22 03:48:10;;;;;;;3.90;2.13;;;;;;;;;;5012959;28;20879;-57
2023/07/22 03:50:37;;;;;;;5.30;1.87;;;;;;;;;;5013143;28;20837;-55
2023/07/22 03:53:04;;;;;;;3.50;2.03;;;;;;;;;;5014326;28;20641;-56
2023/07/22 03:55:31;;;;;;;3.00;2.20;;;;;;;;;;5013190;28;20467;-56
2023/07/22 03:58:00;;;;;;;4.70;2.40;;;;;;;;;;5012722;28;20554;-55
2023/07/22 04:00:27;;;;;;;4.40;2.60;;;;;;;;;;5013247;28;21030;-55
2023/07/22 04:02:54;;;;;;;3.03;2.33;;;;;;;;;;5012831;28;20483;-57
2023/07/22 04:05:22;;;;;;;5.13;3.10;;;;;;;;;;5013438;28;20446;-55
2023/07/22 04:07:49;;;;;;;4.30;2.40;;;;;;;;;;5012320;28;20476;-57
2023/07/22 04:10:16;;;;;;;3.80;2.93;;;;;;;;;;5015786;28;20511;-56
2023/07/22 04:12:43;;;;;;;3.00;2.50;;;;;;;;;;5021633;28;20531;-57
2023/07/22 04:15:12;;;;;;;4.63;2.90;;;;;;;;;;5012588;28;20541;-56
2023/07/22 04:17:40;;;;;;;5.93;2.57;;;;;;;;;;5012569;28;20835;-55
2023/07/22 04:20:09;;;;;;;3.70;2.70;;;;;;;;;;5013609;28;20491;-57
2023/07/22 04:22:36;;;;;;;4.37;2.57;;;;;;;;;;5012597;28;20450;-56
2023/07/22 04:25:04;;;;;;;3.50;2.67;;;;;;;;;;5013120;28;20542;-57
2023/07/22 04:27:31;;;;;;;4.83;2.57;;;;;;;;;;5013080;28;20474;-57
2023/07/22 04:29:58;;;;;;;4.10;2.43;;;;;;;;;;5012291;28;20533;-58
2023/07/22 04:32:27;;;;;;;4.60;2.67;;;;;;;;;;5013596;28;20444;-58
2023/07/22 04:34:55;;;;;;;4.03;2.63;;;;;;;;;;5012627;28;20542;-58
2023/07/22 04:37:22;;;;;;;3.13;2.50;;;;;;;;;;5012465;28;20746;-55
2023/07/22 04:39:50;;;;;;;4.00;2.20;;;;;;;;;;5012900;28;20557;-54
2023/07/22 04:42:17;;;;;;;3.10;2.43;;;;;;;;;;5022754;28;20454;-55
2023/07/22 04:44:45;;;;;;;5.37;3.27;;;;;;;;;;5011737;28;20451;-56
2023/07/22 04:47:12;;;;;;;4.50;2.83;;;;;;;;;;5011810;28;20939;-55
2023/07/22 04:49:41;;;;;;;5.47;2.73;;;;;;;;;;5012581;28;20537;-55
2023/07/22 04:52:09;;;;;;;6.00;2.97;;;;;;;;;;5012125;28;20539;-55
2023/07/22 04:54:36;;;;;;;4.67;2.93;;;;;;;;;;5011909;28;20450;-56
2023/07/22 04:57:03;;;;;;;3.70;2.67;;;;;;;;;;5013050;28;20530;-55
2023/07/22 04:59:30;;;;;;;3.50;2.60;;;;;;;;;;5016118;28;21018;-57
2023/07/22 05:01:58;;;;;;;3.70;2.67;;;;;;;;;;5021081;28;20534;-57
2023/07/22 05:04:25;;;;;;;3.90;2.83;;;;;;;;;;5022023;28;20454;-55
2023/07/22 05:06:54;;;;;;;3.67;2.50;;;;;;;;;;5022465;28;20593;-57
2023/07/22 05:09:21;;;;;;;4.20;2.97;;;;;;;;;;5021642;28;20512;-56
2023/07/22 05:11:48;;;;;;;3.70;2.77;;;;;;;;;;5020414;28;20453;-57
2023/07/22 05:14:15;;;;;;;3.97;2.60;;;;;;;;;;5019095;28;20552;-58
2023/07/22 05:16:43;;;;;;;3.40;2.37;;;;;;;;;;5019645;28;20530;-57
2023/07/22 05:19:10;;;;;;;4.43;2.40;;;;;;;;;;5021145;28;20548;-58
2023/07/22 05:21:37;;;;;;;3.90;2.80;;;;;;;;;;5020122;28;20474;-56
2023/07/22 05:24:06;;;;;;;3.20;2.27;;;;;;;;;;5019717;28;20525;-58
2023/07/22 05:26:33;;;;;;;4.00;2.43;;;;;;;;;;5020295;28;20445;-56
2023/07/22 05:29:01;;;;;;;7.47;2.90;;;;;;;;;;5018094;28;20565;-59
2023/07/22 05:31:28;;;;;;;3.10;2.20;;;;;;;;;;5018840;28;20563;-57
2023/07/22 05:33:55;;;;;;;4.00;2.30;;;;;;;;;;5020837;28;20521;-56
2023/07/22 05:36:22;;;;;;;3.37;2.50;;;;;;;;;;5022596;28;20482;-55
2023/07/22 05:38:50;;;;;;;3.63;2.70;;;;;;;;;;5040091;23;20580;-55
2023/07/22 05:41:18;;;;;;;4.77;2.53;;;;;;;;;;5041589;28;20524;-56
2023/07/22 05:43:46;;;;;;;3.70;2.77;;;;;;;;;;5041304;28;20477;-55
2023/07/22 05:46:13;;;;;;;4.40;2.70;;;;;;;;;;5040843;28;20473;-56
2023/07/22 05:48:40;;;;;;;3.43;2.50;;;;;;;;;;5041299;28;20536;-57
2023/07/22 05:51:07;;;;;;;3.27;2.40;;;;;;;;;;5039091;28;20485;-56
2023/07/22 05:53:35;;;;;;;3.93;2.67;;;;;;;;;;5039144;28;20799;-56
2023/07/22 05:56:02;;;;;;;4.33;2.23;;;;;;;;;;5036904;28;20512;-56
2023/07/22 05:58:30;;;;;;;4.10;2.53;;;;;;;;;;5037802;28;20544;-56
2023/07/22 06:00:58;;;;;;;3.80;1.90;;;;;;;;;;5040013;28;21001;-55
2023/07/22 06:03:25;;;;;;;3.77;2.80;;;;;;;;;;5038942;28;20856;-56
2023/07/22 06:05:52;;;;;;;4.10;2.40;;;;;;;;;;5038009;28;20445;-56
2023/07/22 06:08:19;;;;;;;4.03;2.43;;;;;;;;;;5038330;28;20545;-55
2023/07/22 06:10:47;;;;;;;4.53;3.17;;;;;;;;;;5040082;28;20911;-56
2023/07/22 06:13:14;;;;;;;3.40;2.23;;;;;;;;;;5037819;28;20474;-56
2023/07/22 06:15:43;;;;;;;5.17;2.60;;;;;;;;;;5037995;28;20469;-55
2023/07/22 06:18:10;;;;;;;6.00;3.00;;;;;;;;;;5037198;28;20723;-56
2023/07/22 06:20:38;;;;;;;8.37;2.33;;;;;;;;;;5038090;28;20435;-55
2023/07/22 06:23:06;;;;;;;2.87;1.90;;;;;;;;;;5035643;28;20449;-56
2023/07/22 06:25:33;;;;;;;4.00;2.33;;;;;;;;;;5036909;28;20439;-55
2023/07/22 06:28:00;;;;;;;5.03;3.20;;;;;;;;;;5036055;28;21007;-55
2023/07/22 06:30:28;;;;;;;4.10;2.13;;;;;;;;;;5039237;28;20559;-55
2023/07/22 06:32:56;;;;;;;3.37;2.20;;;;;;;;;;5044178;28;20445;-56
2023/07/22 06:35:24;;;;;;;3.40;2.40;;;;;;;;;;5037259;28;20537;-56
2023/07/22 06:37:51;;;;;;;2.80;1.70;;;;;;;;;;5038467;28;20456;-55
2023/07/22 06:40:18;;;;;;;2.80;1.67;;;;;;;;;;5039791;28;20561;-55
2023/07/22 06:42:45;;;;;;;3.07;1.80;;;;;;;;;;5036550;28;21109;-56
2023/07/22 06:45:13;;;;;;;3.10;1.80;;;;;;;;;;5038618;28;20486;-55
2023/07/22 06:47:40;;;;;;;3.30;1.90;;;;;;;;;;5042593;28;20527;-56
2023/07/22 06:50:09;;;;;;;3.53;1.93;;;;;;;;;;5037097;28;20559;-56
2023/07/22 06:52:36;;;;;;;2.97;1.87;;;;;;;;;;5041133;28;20524;-55
2023/07/22 06:55:03;;;;;;;3.00;1.70;;;;;;;;;;5042652;28;21022;-56
2023/07/22 06:57:31;;;;;;;5.30;2.00;;;;;;;;;;5041551;28;20499;-55
2023/07/22 06:59:58;;;;;;;3.50;2.00;;;;;;;;;;5039419;28;20493;-55
2023/07/22 07:02:26;;;;;;;2.80;1.67;;;;;;;;;;5041823;28;20433;-55
2023/07/22 07:04:53;;;;;;;3.17;1.60;;;;;;;;;;5046897;28;20530;-55
2023/07/22 07:07:22;;;;;;;3.20;1.80;;;;;;;;;;5045111;28;20580;-55
2023/07/22 07:09:50;;;;;;;3.90;2.10;;;;;;;;;;5041975;28;20559;-56
2023/07/22 07:12:17;;;;;;;3.50;1.70;;;;;;;;;;5041838;28;20532;-56
2023/07/22 07:14:45;;;;;;;3.50;1.97;;;;;;;;;;5041923;28;20470;-55
2023/07/22 07:17:12;;;;;;;3.23;2.10;;;;;;;;;;5039998;28;20485;-56
2023/07/22 07:19:39;;;;;;;3.40;1.90;;;;;;;;;;5041698;28;20545;-56
2023/07/22 07:22:07;;;;;;;2.87;1.97;;;;;;;;;;5043623;28;20438;-55
2023/07/22 07:24:35;;;;;;;3.83;2.00;;;;;;;;;;5040231;28;20981;-56
2023/07/22 07:27:03;;;;;;;3.33;1.83;;;;;;;;;;5039982;28;20449;-56
2023/07/22 07:29:30;;;;;;;3.80;3.03;;;;;;;;;;5040529;28;20469;-55
2023/07/22 07:31:57;;;;;;;3.87;2.33;;;;;;;;;;5043865;28;21036;-55
2023/07/22 07:34:24;;;;;;;3.30;1.70;;;;;;;;;;5039888;28;20469;-56
2023/07/22 07:36:51;;;;;;;7.17;3.93;;;;;;;;;;5036622;28;20532;-56
2023/07/22 07:39:19;;;;;;;3.07;2.20;;;;;;;;;;5041110;28;20512;-55
2023/07/22 07:41:47;;;;;;;3.33;2.07;;;;;;;;;;5041068;28;20886;-55
2023/07/22 07:44:14;;;;;;;2.60;1.60;;;;;;;;;;5043364;28;20465;-56
2023/07/22 07:46:42;;;;;;;2.90;2.03;;;;;;;;;;5040544;28;20478;-55
2023/07/22 07:49:09;;;;;;;3.00;2.10;;;;;;;;;;5041188;28;20457;-55
2023/07/22 07:51:37;;;;;;;5.23;2.57;;;;;;;;;;5043490;28;20560;-56
2023/07/22 07:54:06;;;;;;;3.50;2.23;;;;;;;;;;5040392;28;20933;-56
2023/07/22 07:56:34;;;;;;;5.10;2.50;;;;;;;;;;5042032;28;20945;-57
2023/07/22 07:59:05;;;;;;;3.10;2.30;;;;;;;;;;5038539;28;20489;-55
2023/07/22 08:01:32;;;;;;;4.10;2.10;;;;;;;;;;5039671;28;20450;-55
2023/07/22 08:03:59;;;;;;;4.00;2.77;;;;;;;;;;5040986;28;20450;-55
2023/07/22 08:06:26;;;;;;;3.67;2.50;;;;;;;;;;5039471;28;20446;-55
2023/07/22 08:08:54;;;;;;;3.87;2.50;;;;;;;;;;5040331;28;20560;-56
2023/07/22 08:11:21;;;;;;;3.40;2.30;;;;;;;;;;5035427;28;20553;-55
2023/07/22 08:13:48;;;;;;;3.63;2.80;;;;;;;;;;5031035;28;20922;-56
2023/07/22 08:16:17;;;;;;;3.43;2.27;;;;;;;;;;5031004;28;20443;-56
2023/07/22 08:18:46;;;;;;;3.33;2.33;;;;;;;;;;5038405;28;20465;-56
2023/07/22 08:21:14;;;;;;;3.63;2.83;;;;;;;;;;5043421;28;20442;-55
2023/07/22 08:23:45;;;;;;;4.20;2.47;;;;;;;;;;5032281;28;20518;-55
2023/07/22 08:26:12;;;;;;;4.13;2.53;;;;;;;;;;5036827;28;20447;-56
2023/07/22 08:28:40;;;;;;;4.00;2.43;;;;;;;;;;5036897;28;20505;-56
2023/07/22 08:31:07;;;;;;;3.30;2.10;;;;;;;;;;5032337;28;20558;-56
2023/07/22 08:33:36;;;;;;;3.67;2.07;;;;;;;;;;5032277;28;20438;-56
2023/07/22 08:36:03;;;;;;;3.97;2.37;;;;;;;;;;5035453;28;20439;-55
2023/07/22 08:38:30;;;;;;;4.37;2.37;;;;;;;;;;5031668;28;21159;-55
2023/07/22 08:40:58;;;;;;;3.00;2.20;;;;;;;;;;5033685;28;20994;-55
2023/07/22 08:43:25;;;;;;;3.30;2.27;;;;;;;;;;5038151;28;20525;-56
2023/07/22 08:45:53;;;;;;;3.63;2.10;;;;;;;;;;5050844;28;20480;-56
2023/07/22 08:48:23;;;;;;;3.20;2.47;;;;;;;;;;5044422;28;20647;-56
2023/07/22 08:50:55;;;;;;;3.90;2.33;;;;;;;;;;5031158;28;20564;-56
2023/07/22 08:53:23;;;;;;;3.03;2.27;;;;;;;;;;5029525;28;20501;-56
2023/07/22 08:55:51;;;;;;;3.60;2.40;;;;;;;;;;5036528;28;21017;-55
2023/07/22 08:58:18;;;;;;;3.47;2.10;;;;;;;;;;5042675;28;20493;-56
2023/07/22 09:00:46;;;;;;;3.53;2.40;;;;;;;;;;5030970;28;20525;-56
2023/07/22 09:03:13;;;;;;;3.50;2.50;;;;;;;;;;5040140;28;20470;-56
2023/07/22 09:05:40;;;;;;;3.23;2.43;;;;;;;;;;5041811;28;20551;-55
2023/07/22 09:08:09;;;;;;;3.40;2.30;;;;;;;;;;5039239;28;20539;-55
2023/07/22 09:10:36;;;;;;;4.67;2.80;;;;;;;;;;5033114;28;20576;-56
2023/07/22 09:13:04;;;;;;;3.67;2.87;;;;;;;;;;5035770;28;20459;-56
2023/07/22 09:15:33;;;;;;;4.40;2.67;;;;;;;;;;5044399;28;20466;-56
2023/07/22 09:18:00;;;;;;;4.50;2.83;;;;;;;;;;5035431;28;20900;-55
2023/07/22 09:20:28;;;;;;;3.83;2.30;;;;;;;;;;5032950;28;20442;-55
2023/07/22 09:22:55;;;;;;;4.37;2.70;;;;;;;;;;5044243;28;20449;-56
2023/07/22 09:25:24;;;;;;;4.20;2.90;;;;;;;;;;5046634;28;20949;-56
2023/07/22 09:27:53;;;;;;;2.90;2.10;;;;;;;;;;5047525;28;20445;-57
2023/07/22 09:30:22;;;;;;;5.07;3.30;;;;;;;;;;5046411;28;20506;-55
2023/07/22 09:32:49;;;;;;;3.57;2.77;;;;;;;;;;5031636;28;20529;-56
2023/07/22 09:35:16;;;;;;;4.07;2.70;;;;;;;;;;5028515;28;20562;-56
2023/07/22 09:37:44;;;;;;;3.40;2.70;;;;;;;;;;5032484;28;20538;-56
2023/07/22 09:40:18;;;;;;;4.50;2.97;;;;;;;;;;5040174;28;20512;-56
2023/07/22 09:42:48;;;;;;;3.60;2.73;;;;;;;;;;5030494;28;20450;-56
2023/07/22 09:45:15;;;;;;;4.43;3.23;;;;;;;;;;5027971;28;20478;-55
2023/07/22 09:47:43;;;;;;;3.80;2.73;;;;;;;;;;5028832;28;21004;-55
2023/07/22 09:50:12;;;;;;;4.23;3.37;;;;;;;;;;5043438;28;20483;-56
2023/07/22 09:52:43;;;;;;;5.63;4.50;;;;;;;;;;5030669;28;20891;-56
2023/07/22 09:55:11;;;;;;;4.60;3.70;;;;;;;;;;5038476;28;20470;-56
2023/07/22 09:57:39;;;;;;;5.33;3.80;;;;;;;;;;5035949;28;20580;-56
2023/07/22 10:00:09;;;;;;;4.53;3.20;;;;;;;;;;5034749;28;20580;-55
2023/07/22 10:02:37;;;;;;;4.00;2.80;;;;;;;;;;5031004;28;20462;-56
2023/07/22 10:05:05;;;;;;;2.93;2.63;;;;;;;;;;5033714;28;20438;-57
2023/07/22 10:07:34;;;;;;;5.00;2.83;;;;;;;;;;5034111;28;20529;-56
2023/07/22 10:10:03;;;;;;;6.13;3.90;;;;;;;;;;5031039;28;20547;-56
2023/07/22 10:12:30;;;;;;;4.20;3.03;;;;;;;;;;5036685;28;20538;-56
2023/07/22 10:14:58;;;;;;;5.33;2.80;;;;;;;;;;5040346;28;20569;-56
2023/07/22 10:17:29;;;;;;;3.70;2.87;;;;;;;;;;5036946;28;20477;-56
2023/07/22 10:19:57;;;;;;;4.20;3.37;;;;;;;;;;5042880;28;21096;-56
2023/07/22 10:22:24;;;;;;;3.73;2.93;;;;;;;;;;5045843;28;20536;-56
2023/07/22 10:24:51;;;;;;;6.20;3.20;;;;;;;;;;5041186;28;20655;-56
2023/07/22 10:27:19;;;;;;;3.73;3.10;;;;;;;;;;5033420;28;20442;-57
2023/07/22 10:29:47;;;;;;;4.27;3.17;;;;;;;;;;5039003;28;20501;-57
2023/07/22 10:32:15;;;;;;;3.63;2.40;;;;;;;;;;5046775;28;20569;-56
2023/07/22 10:34:44;;;;;;;5.60;3.13;;;;;;;;;;5043801;28;20472;-57
2023/07/22 10:37:11;;;;;;;4.33;2.93;;;;;;;;;;5037312;28;20528;-56
2023/07/22 10:39:39;;;;;;;4.60;3.40;;;;;;;;;;5044980;28;20490;-57
2023/07/22 10:42:07;;;;;;;3.60;2.60;;;;;;;;;;5042387;28;20433;-57
2023/07/22 10:44:35;;;;;;;4.17;2.77;;;;;;;;;;5046228;28;20473;-56
2023/07/22 10:47:03;;;;;;;5.00;3.20;;;;;;;;;;5046964;28;20527;-56
2023/07/22 10:49:44;;;;;;;4.63;3.30;;;;;;;;;;5041793;28;20548;-57
2023/07/22 10:52:14;;;;;;;3.80;3.17;;;;;;;;;;5033113;28;20928;-57
2023/07/22 10:54:41;;;;;;;3.97;3.10;;;;;;;;;;5046791;28;20823;-56
2023/07/22 10:57:24;;;;;;;5.70;3.60;;;;;;;;;;5047173;28;20532;-56
2023/07/22 10:59:52;;;;;;;4.80;3.40;;;;;;;;;;5040169;28;20996;-56
2023/07/22 11:02:25;;;;;;;4.27;3.27;;;;;;;;;;5032948;28;21011;-56
2023/07/22 11:04:52;;;;;;;4.30;3.50;;;;;;;;;;5045871;28;20445;-56
2023/07/22 11:07:33;;;;;;;5.90;3.70;;;;;;;;;;5045620;28;20481;-56
2023/07/22 11:10:12;;;;;;;4.47;3.47;;;;;;;;;;5040227;28;20501;-56
2023/07/22 11:12:40;;;;;;;6.50;3.20;;;;;;;;;;5040558;28;20568;-56
2023/07/22 11:15:08;;;;;;;5.33;3.43;;;;;;;;;;5026207;28;20445;-56
2023/07/22 11:17:35;;;;;;;6.13;3.40;;;;;;;;;;5028218;28;20533;-56
2023/07/22 11:20:03;;;;;;;4.40;3.17;;;;;;;;;;5033462;28;21218;-56
2023/07/22 11:22:30;;;;;;;6.20;3.70;;;;;;;;;;5036349;28;20516;-56
2023/07/22 11:24:59;;;;;;;4.30;3.23;;;;;;;;;;5033277;28;20528;-56
2023/07/22 11:27:26;;;;;;;4.20;3.50;;;;;;;;;;5038715;28;21030;-56
2023/07/22 11:29:53;;;;;;;5.67;3.97;;;;;;;;;;5043216;28;20478;-56
2023/07/22 11:32:22;;;;;;;4.63;3.60;;;;;;;;;;5040038;28;20571;-57
2023/07/22 11:34:49;;;;;;;4.93;3.63;;;;;;;;;;5042744;28;20461;-56
2023/07/22 11:37:16;;;;;;;5.60;4.17;;;;;;;;;;5029382;28;20478;-57
2023/07/22 11:39:44;;;;;;;5.97;3.03;;;;;;;;;;5028911;28;20842;-56
2023/07/22 11:42:13;;;;;;;4.90;3.00;;;;;;;;;;5036744;28;20467;-56
2023/07/22 11:44:40;;;;;;;4.80;3.43;;;;;;;;;;5035498;28;20532;-56
2023/07/22 11:47:09;;;;;;;4.73;3.47;;;;;;;;;;5039891;28;20486;-56
2023/07/22 11:49:36;;;;;;;4.67;3.07;;;;;;;;;;5029244;28;20518;-54
2023/07/22 11:52:04;;;;;;;4.67;4.10;;;;;;;;;;5042474;28;20941;-54
2023/07/22 11:54:33;;;;;;;4.80;4.00;;;;;;;;;;5049128;28;20477;-53
2023/07/22 11:57:11;;;;;;;4.10;3.70;;;;;;;;;;5049018;28;20476;-56
2023/07/22 11:59:40;;;;;;;5.17;3.40;;;;;;;;;;5044260;28;20548;-56
2023/07/22 12:02:08;;;;;;;5.03;3.60;;;;;;;;;;5037310;28;20799;-56
2023/07/22 12:04:35;;;;;;;4.70;3.70;;;;;;;;;;5036953;28;20454;-56
2023/07/22 12:07:04;;;;;;;4.30;3.40;;;;;;;;;;5038624;28;20478;-56
2023/07/22 12:09:32;;;;;;;4.83;3.33;;;;;;;;;;5036558;28;20465;-56
2023/07/22 12:12:00;;;;;;;4.90;3.53;;;;;;;;;;5039112;28;21087;-56
2023/07/22 12:14:34;;;;;;;4.47;3.40;;;;;;;;;;5035242;28;20533;-56
2023/07/22 12:17:03;;;;;;;4.90;3.70;;;;;;;;;;5032610;28;20460;-57
2023/07/22 12:19:31;;;;;;;3.53;3.23;;;;;;;;;;5029038;28;20568;-56
2023/07/22 12:21:58;;;;;;;4.10;3.70;;;;;;;;;;5040517;28;20524;-56
2023/07/22 12:24:25;;;;;;;4.10;3.10;;;;;;;;;;5037841;28;20505;-56
2023/07/22 12:26:52;;;;;;;5.40;3.20;;;;;;;;;;5038523;28;20729;-56
2023/07/22 12:29:20;;;;;;;3.80;3.37;;;;;;;;;;5037785;28;20485;-57
2023/07/22 12:31:47;;;;;;;4.40;3.60;;;;;;;;;;5039030;28;20473;-57
2023/07/22 12:34:16;;;;;;;5.60;2.97;;;;;;;;;;5037259;28;20486;-57
2023/07/22 12:36:43;;;;;;;3.80;2.90;;;;;;;;;;5037994;28;20523;-57
2023/07/22 12:39:10;;;;;;;4.70;3.00;;;;;;;;;;5037775;28;20566;-54
2023/07/22 12:41:38;;;;;;;4.53;3.03;;;;;;;;;;5034425;28;20474;-56
2023/07/22 12:44:05;;;;;;;3.80;2.47;;;;;;;;;;5040491;28;20464;-56
2023/07/22 12:46:32;;;;;;;5.50;3.13;;;;;;;;;;5037999;28;20533;-57
2023/07/22 12:49:00;;;;;;;3.60;2.70;;;;;;;;;;5036599;28;20551;-56
2023/07/22 12:51:28;;;;;;;3.37;2.40;;;;;;;;;;5037763;28;20533;-57
2023/07/22 12:53:56;;;;;;;4.60;2.63;;;;;;;;;;5035800;28;20512;-57
2023/07/22 12:56:23;;;;;;;4.50;3.70;;;;;;;;;;5033068;28;20545;-57
2023/07/22 12:58:50;;;;;;;4.50;3.50;;;;;;;;;;5029885;28;20494;-56
2023/07/22 13:01:18;;;;;;;5.20;3.10;;;;;;;;;;5029415;28;20808;-57
2023/07/22 13:03:45;;;;;;;4.07;3.00;;;;;;;;;;5029848;28;20522;-57
2023/07/22 13:06:12;;;;;;;5.53;3.90;;;;;;;;;;5029597;28;20456;-56
2023/07/22 13:08:41;;;;;;;4.73;3.37;;;;;;;;;;5031788;28;20495;-57
2023/07/22 13:11:08;;;;;;;4.93;3.80;;;;;;;;;;5031209;28;20899;-57
2023/07/22 13:13:35;;;;;;;5.37;3.07;;;;;;;;;;5047125;28;20564;-56
2023/07/22 13:16:03;;;;;;;4.40;3.37;;;;;;;;;;5031603;28;20946;-56
2023/07/22 13:18:30;;;;;;;5.20;3.70;;;;;;;;;;5038842;28;20466;-56
2023/07/22 13:20:57;;;;;;;7.43;3.13;;;;;;;;;;5038498;28;20525;-56
2023/07/22 13:23:24;;;;;;;4.40;3.03;;;;;;;;;;5041711;28;20465;-56
2023/07/22 13:25:53;;;;;;;4.30;3.17;;;;;;;;;;5037480;28;20508;-56
2023/07/22 13:28:20;;;;;;;4.10;2.80;;;;;;;;;;5036813;28;20548;-57
2023/07/22 13:30:47;;;;;;;5.53;2.83;;;;;;;;;;5027945;28;20492;-57
2023/07/22 13:33:15;;;;;;;7.27;2.80;;;;;;;;;;5027884;28;21132;-57
2023/07/22 13:35:42;;;;;;;4.27;3.17;;;;;;;;;;5027790;28;20533;-56
2023/07/22 13:38:10;;;;;;;4.17;3.17;;;;;;;;;;5028280;28;20523;-56
2023/07/22 13:40:37;;;;;;;4.10;3.00;;;;;;;;;;5027818;28;20443;-56
2023/07/22 13:43:06;;;;;;;5.07;3.10;;;;;;;;;;5036248;28;20532;-56
2023/07/22 13:45:33;;;;;;;4.40;2.67;;;;;;;;;;5038421;28;20541;-57
2023/07/22 13:48:01;;;;;;;3.40;2.67;;;;;;;;;;5038013;28;20449;-57
2023/07/22 13:50:28;;;;;;;5.23;3.20;;;;;;;;;;5034173;28;20549;-57
2023/07/22 13:52:55;;;;;;;4.07;3.20;;;;;;;;;;5046422;28;20920;-57
2023/07/22 13:55:22;;;;;;;4.00;3.13;;;;;;;;;;5036623;28;20532;-56
2023/07/22 13:57:49;;;;;;;3.83;2.83;;;;;;;;;;5032645;28;20450;-56
2023/07/22 14:00:18;;;;;;;4.27;3.07;;;;;;;;;;5033477;28;20517;-51
2023/07/22 14:02:46;;;;;;;4.23;2.90;;;;;;;;;;5035346;28;20508;-56
2023/07/22 14:05:13;;;;;;;4.73;3.20;;;;;;;;;;5036490;28;20832;-57
2023/07/22 14:07:40;;;;;;;4.40;3.80;;;;;;;;;;5038780;28;20865;-56
2023/07/22 14:10:08;;;;;;;4.00;2.73;;;;;;;;;;5037608;28;20828;-56
2023/07/22 14:12:36;;;;;;;3.80;2.83;;;;;;;;;;5037634;28;20477;-56
2023/07/22 14:15:04;;;;;;;4.03;3.10;;;;;;;;;;5032854;28;20532;-56
2023/07/22 14:17:33;;;;;;;5.90;5.30;;;;;;;;;;5036313;28;20457;-56
2023/07/22 14:20:00;;;;;;;7.90;7.07;;;;;;;;;;5037276;28;21488;-56
2023/07/22 14:22:27;;;;;;;9.50;7.67;;;;;;;;;;5036699;28;20513;-57
2023/07/22 14:24:55;;;;;;;6.60;4.23;;;;;;;;;;5045740;28;20455;-56
2023/07/22 14:27:22;;;;;;;4.70;3.33;;;;;;;;;;5045885;28;20526;-56
2023/07/22 14:29:49;;;;;;;13.67;10.20;;;;;;;;;;5044622;28;21052;-57
2023/07/22 14:32:17;;;;;;;3.63;3.00;;;;;;;;;;5045764;28;21050;-57
2023/07/22 14:34:46;;;;;;;5.77;3.57;;;;;;;;;;5039129;28;20549;-54
2023/07/22 14:37:14;;;;;;;3.70;3.10;;;;;;;;;;5044272;28;20532;-54
2023/07/22 14:39:41;;;;;;;4.10;2.80;;;;;;;;;;5044418;28;20848;-54
2023/07/22 14:42:08;;;;;;;4.50;3.27;;;;;;;;;;5043937;28;20449;-54
2023/07/22 14:44:36;;;;;;;5.80;3.70;;;;;;;;;;5025225;28;20478;-54
2023/07/22 14:47:03;;;;;;;3.23;2.87;;;;;;;;;;5033849;28;20533;-54